Camden, South Carolina
Current Conditions -  °F | °C
As of 8:55 PM on Tuesday 25 Nov 2014 (Local Time) from KCDN Reporting Station
Light Rain Light Rain  
Wind Chill: 54°   Ceiling: Unl
Heat Index: 54°   Visibility: 7mi
Dew Point: 54°   Wind: 0mph
Humidity: 100%   Direction: NA
Pressure: 30.05"   Gusts: NA
Location:  34.25°N, 80.61°W
Report Text: KCDN 260155Z AUTO 00000KT 7SM -RA FEW012 FEW022 SCT065 12/12 A3005 RMK AO2 P0001 TSNO
Loading
Personal Weather Stations






























Interactive Weather Map New forecast layout! Learn more

10-Day Weather Forecast

Advertisements
Track Severe Weather on mobile